createdAt,value
2022-11-29T00:00:08.455Z,819.0000
2022-11-29T00:01:08.843Z,816.0000
2022-11-29T00:02:11.067Z,815.0000
2022-11-29T00:03:13.489Z,816.0000
2022-11-29T00:04:15.682Z,809.0000
2022-11-29T00:05:18.028Z,809.0000
2022-11-29T00:06:20.093Z,807.0000
2022-11-29T00:07:20.692Z,804.0000
2022-11-29T00:08:22.944Z,801.0000
2022-11-29T00:09:23.147Z,802.0000
2022-11-29T00:10:25.401Z,802.0000
2022-11-29T00:11:27.738Z,801.0000
2022-11-29T00:12:30.096Z,801.0000
2022-11-29T00:13:32.479Z,801.0000
2022-11-29T00:14:32.736Z,803.0000
2022-11-29T00:15:35.118Z,804.0000
2022-11-29T00:16:37.572Z,799.0000
2022-11-29T00:17:39.884Z,802.0000
2022-11-29T00:18:40.107Z,800.0000
2022-11-29T00:19:42.480Z,802.0000
2022-11-29T00:20:44.826Z,805.0000
2022-11-29T00:21:47.193Z,799.0000
2022-11-29T00:22:49.509Z,801.0000
2022-11-29T00:23:51.846Z,799.0000
2022-11-29T00:24:52.009Z,799.0000
2022-11-29T00:25:54.349Z,798.0000
2022-11-29T00:26:56.832Z,793.0000
2022-11-29T00:27:59.017Z,789.0000
2022-11-29T00:29:01.331Z,790.0000
2022-11-29T00:30:01.566Z,793.0000
2022-11-29T00:31:03.960Z,798.0000
2022-11-29T00:32:06.434Z,794.0000
2022-11-29T00:33:08.669Z,799.0000
2022-11-29T00:34:11.051Z,798.0000
2022-11-29T00:35:11.260Z,798.0000
2022-11-29T00:36:13.629Z,799.0000
2022-11-29T00:37:16.017Z,802.0000
2022-11-29T00:38:18.307Z,803.0000
2022-11-29T00:39:20.598Z,805.0000
2022-11-29T00:40:20.767Z,804.0000
2022-11-29T00:41:23.072Z,809.0000
2022-11-29T00:42:25.546Z,808.0000
2022-11-29T00:43:27.758Z,808.0000
2022-11-29T00:44:30.115Z,811.0000
2022-11-29T00:45:32.438Z,816.0000
2022-11-29T00:46:34.720Z,816.0000
2022-11-29T00:47:37.141Z,820.0000
2022-11-29T00:48:39.291Z,812.0000
2022-11-29T00:49:41.561Z,812.0000
2022-11-29T00:50:43.808Z,809.0000
2022-11-29T00:51:46.026Z,807.0000
2022-11-29T00:52:46.285Z,809.0000
2022-11-29T00:53:48.432Z,812.0000
2022-11-29T00:55:49.906Z,786.0000
2022-11-29T00:56:52.131Z,787.0000
2022-11-29T00:57:53.371Z,787.0000
2022-11-29T00:58:54.508Z,787.0000
2022-11-29T00:59:56.798Z,791.0000
2022-11-29T01:00:59.205Z,790.0000
2022-11-29T01:02:01.408Z,792.0000
2022-11-29T01:03:03.733Z,794.0000
2022-11-29T01:04:03.840Z,796.0000
2022-11-29T01:05:06.165Z,794.0000
2022-11-29T01:06:08.522Z,794.0000
2022-11-29T01:07:10.848Z,795.0000
2022-11-29T01:08:13.304Z,797.0000
2022-11-29T01:09:15.527Z,795.0000
2022-11-29T01:10:15.706Z,792.0000
2022-11-29T01:11:18.039Z,792.0000
2022-11-29T01:12:20.307Z,789.0000
2022-11-29T01:13:22.653Z,784.0000
2022-11-29T01:14:22.832Z,787.0000
2022-11-29T01:15:25.188Z,781.0000
2022-11-29T01:16:27.662Z,782.0000
2022-11-29T01:17:29.918Z,778.0000
2022-11-29T01:18:30.151Z,779.0000
2022-11-29T01:19:32.473Z,779.0000
2022-11-29T01:20:34.836Z,775.0000
2022-11-29T01:21:37.193Z,776.0000
2022-11-29T01:22:39.549Z,779.0000
2022-11-29T01:23:39.693Z,778.0000
2022-11-29T01:24:42.363Z,777.0000
2022-11-29T01:25:44.286Z,782.0000
2022-11-29T01:26:46.610Z,778.0000
2022-11-29T01:27:46.780Z,774.0000
2022-11-29T01:28:49.250Z,771.0000
2022-11-29T01:29:49.279Z,772.0000
2022-11-29T01:30:51.628Z,773.0000
2022-11-29T01:31:53.950Z,773.0000
2022-11-29T01:32:56.260Z,772.0000
2022-11-29T01:33:58.609Z,766.0000
2022-11-29T01:35:00.918Z,763.0000
2022-11-29T01:36:01.099Z,760.0000
2022-11-29T01:37:03.434Z,762.0000
2022-11-29T01:38:05.738Z,761.0000
2022-11-29T01:39:08.114Z,761.0000
2022-11-29T01:40:08.259Z,760.0000
2022-11-29T01:41:10.610Z,761.0000
2022-11-29T01:42:12.936Z,759.0000
2022-11-29T01:43:15.282Z,755.0000
2022-11-29T01:44:17.632Z,757.0000
2022-11-29T01:45:19.967Z,758.0000
2022-11-29T01:46:20.176Z,756.0000
2022-11-29T01:47:22.548Z,756.0000
2022-11-29T01:48:24.882Z,757.0000
2022-11-29T01:49:27.294Z,753.0000
2022-11-29T01:50:29.525Z,754.0000
2022-11-29T01:51:29.718Z,757.0000
2022-11-29T01:52:32.021Z,755.0000
2022-11-29T01:53:34.347Z,755.0000
2022-11-29T01:54:36.696Z,755.0000
2022-11-29T01:55:39.030Z,757.0000
2022-11-29T01:56:39.164Z,753.0000
2022-11-29T01:57:41.516Z,754.0000
2022-11-29T01:58:43.759Z,751.0000
2022-11-29T01:59:46.092Z,749.0000
2022-11-29T02:00:48.378Z,748.0000
2022-11-29T02:01:50.699Z,744.0000
2022-11-29T02:02:53.119Z,743.0000
2022-11-29T02:03:53.250Z,743.0000
2022-11-29T02:04:55.580Z,742.0000
2022-11-29T02:05:57.873Z,743.0000
2022-11-29T02:07:00.180Z,744.0000
2022-11-29T02:08:02.537Z,749.0000
2022-11-29T02:09:02.755Z,752.0000
2022-11-29T02:10:05.273Z,752.0000
2022-11-29T02:11:07.503Z,753.0000
2022-11-29T02:12:09.905Z,752.0000
2022-11-29T02:13:12.292Z,750.0000
2022-11-29T02:14:14.655Z,748.0000
2022-11-29T02:15:17.054Z,745.0000
2022-11-29T02:16:19.426Z,742.0000
2022-11-29T02:17:19.592Z,744.0000
2022-11-29T02:18:21.994Z,739.0000
2022-11-29T02:19:24.304Z,739.0000
2022-11-29T02:20:26.688Z,736.0000
2022-11-29T02:21:28.980Z,739.0000
2022-11-29T02:22:29.210Z,738.0000
2022-11-29T02:23:31.581Z,737.0000
2022-11-29T02:24:33.969Z,738.0000
2022-11-29T02:25:36.487Z,735.0000
2022-11-29T02:26:38.725Z,734.0000
2022-11-29T02:27:38.937Z,733.0000
2022-11-29T02:28:41.321Z,733.0000
2022-11-29T02:29:43.658Z,733.0000
2022-11-29T02:30:46.263Z,732.0000
2022-11-29T02:31:46.234Z,729.0000
2022-11-29T02:32:48.627Z,726.0000
2022-11-29T02:33:51.024Z,725.0000
2022-11-29T02:34:53.397Z,728.0000
2022-11-29T02:35:55.816Z,726.0000
2022-11-29T02:36:56.030Z,726.0000
2022-11-29T02:37:58.415Z,729.0000
2022-11-29T02:39:00.826Z,726.0000
2022-11-29T02:40:03.227Z,725.0000
2022-11-29T02:41:03.519Z,726.0000
2022-11-29T02:42:05.815Z,727.0000
2022-11-29T02:43:08.175Z,730.0000
2022-11-29T02:44:10.531Z,725.0000
2022-11-29T02:45:10.751Z,723.0000
2022-11-29T02:46:13.200Z,724.0000
2022-11-29T02:47:15.403Z,723.0000
2022-11-29T02:48:17.721Z,720.0000
2022-11-29T02:49:20.115Z,716.0000
2022-11-29T02:50:20.245Z,719.0000
2022-11-29T02:51:22.711Z,722.0000
2022-11-29T02:52:24.882Z,720.0000
2022-11-29T02:53:27.227Z,721.0000
2022-11-29T02:54:29.539Z,721.0000
2022-11-29T02:55:29.704Z,722.0000
2022-11-29T02:56:32.014Z,721.0000
2022-11-29T02:57:34.309Z,718.0000
2022-11-29T02:58:36.649Z,717.0000
2022-11-29T02:59:39.002Z,721.0000
2022-11-29T03:00:41.329Z,720.0000
2022-11-29T03:01:41.616Z,718.0000
2022-11-29T03:02:43.875Z,714.0000
2022-11-29T03:03:46.128Z,716.0000
2022-11-29T03:04:48.492Z,715.0000
2022-11-29T03:05:50.781Z,714.0000
2022-11-29T03:06:53.150Z,716.0000
2022-11-29T03:07:53.399Z,719.0000
2022-11-29T03:08:55.711Z,720.0000
2022-11-29T03:09:58.086Z,713.0000
2022-11-29T03:11:00.399Z,713.0000
2022-11-29T03:12:02.770Z,712.0000
2022-11-29T03:13:02.912Z,714.0000
2022-11-29T03:14:05.239Z,715.0000
2022-11-29T03:15:07.536Z,713.0000
2022-11-29T03:16:09.933Z,711.0000
2022-11-29T03:17:12.227Z,712.0000
2022-11-29T03:18:12.386Z,713.0000
2022-11-29T03:19:14.675Z,713.0000
2022-11-29T03:20:17.030Z,713.0000
2022-11-29T03:21:19.342Z,707.0000
2022-11-29T03:22:21.777Z,710.0000
2022-11-29T03:23:23.997Z,710.0000
2022-11-29T03:24:24.190Z,709.0000
2022-11-29T03:25:26.564Z,709.0000
2022-11-29T03:26:28.864Z,707.0000
2022-11-29T03:27:31.233Z,706.0000
2022-11-29T03:28:33.512Z,707.0000
2022-11-29T03:29:33.700Z,706.0000
2022-11-29T03:31:19.208Z,698.0000
2022-11-29T03:32:21.455Z,698.0000
2022-11-29T03:33:23.933Z,700.0000
2022-11-29T03:34:26.131Z,699.0000
2022-11-29T03:35:28.512Z,694.0000
2022-11-29T03:36:28.676Z,699.0000
2022-11-29T03:37:30.991Z,701.0000
2022-11-29T03:38:33.421Z,701.0000
2022-11-29T03:39:35.617Z,702.0000
2022-11-29T03:40:37.903Z,701.0000
2022-11-29T03:41:40.246Z,696.0000
2022-11-29T03:42:40.437Z,695.0000
2022-11-29T03:43:42.943Z,687.0000
2022-11-29T03:44:45.471Z,687.0000
2022-11-29T03:45:47.503Z,686.0000
2022-11-29T03:46:49.860Z,691.0000
2022-11-29T03:47:50.036Z,691.0000
2022-11-29T03:48:52.479Z,691.0000
2022-11-29T03:49:54.634Z,694.0000
2022-11-29T03:50:57.001Z,692.0000
2022-11-29T03:51:59.239Z,688.0000
2022-11-29T03:53:01.493Z,691.0000
2022-11-29T03:54:03.833Z,692.0000
2022-11-29T03:55:03.980Z,695.0000
2022-11-29T03:56:06.269Z,690.0000
2022-11-29T03:57:08.555Z,689.0000
2022-11-29T03:58:10.865Z,691.0000
2022-11-29T03:59:13.325Z,692.0000
2022-11-29T04:00:15.563Z,694.0000
2022-11-29T04:01:15.834Z,694.0000
2022-11-29T04:02:18.206Z,681.0000
2022-11-29T04:03:20.535Z,687.0000
2022-11-29T04:04:22.951Z,691.0000
2022-11-29T04:05:25.303Z,686.0000
2022-11-29T04:06:27.680Z,688.0000
2022-11-29T04:07:30.068Z,686.0000
2022-11-29T04:08:32.386Z,685.0000
2022-11-29T04:09:32.656Z,684.0000
2022-11-29T04:10:34.976Z,685.0000
2022-11-29T04:11:37.340Z,688.0000
2022-11-29T04:12:39.727Z,689.0000
2022-11-29T04:13:42.095Z,689.0000
2022-11-29T04:14:42.615Z,688.0000
2022-11-29T04:15:44.688Z,682.0000
2022-11-29T04:16:46.970Z,682.0000
2022-11-29T04:17:49.289Z,681.0000
2022-11-29T04:18:51.632Z,680.0000
2022-11-29T04:19:51.968Z,680.0000
2022-11-29T04:20:54.165Z,676.0000
2022-11-29T04:21:56.515Z,676.0000
2022-11-29T04:22:58.779Z,678.0000
2022-11-29T04:24:01.102Z,682.0000
2022-11-29T04:25:03.471Z,690.0000
2022-11-29T04:26:03.603Z,695.0000
2022-11-29T04:27:05.949Z,700.0000
2022-11-29T04:28:08.282Z,707.0000
2022-11-29T04:29:10.621Z,705.0000
2022-11-29T04:30:13.220Z,704.0000
2022-11-29T04:31:13.188Z,710.0000
2022-11-29T04:32:13.319Z,718.0000
2022-11-29T04:33:15.705Z,717.0000
2022-11-29T04:34:18.076Z,722.0000
2022-11-29T04:35:20.467Z,720.0000
2022-11-29T04:36:20.664Z,720.0000
2022-11-29T04:37:23.073Z,722.0000
2022-11-29T04:38:25.435Z,722.0000
2022-11-29T04:39:27.839Z,721.0000
2022-11-29T04:40:28.068Z,723.0000
2022-11-29T04:41:30.397Z,727.0000
2022-11-29T04:42:32.802Z,726.0000
2022-11-29T04:43:35.146Z,724.0000
2022-11-29T04:44:35.368Z,726.0000
2022-11-29T04:45:37.905Z,725.0000
2022-11-29T04:46:40.167Z,724.0000
2022-11-29T04:47:42.416Z,723.0000
2022-11-29T04:48:44.752Z,725.0000
2022-11-29T04:49:44.930Z,725.0000
2022-11-29T04:50:47.302Z,725.0000
2022-11-29T04:51:49.612Z,725.0000
2022-11-29T04:52:51.977Z,725.0000
2022-11-29T04:53:54.324Z,723.0000
2022-11-29T04:54:54.521Z,725.0000
2022-11-29T04:55:56.915Z,725.0000
2022-11-29T04:56:59.171Z,726.0000
2022-11-29T04:58:01.468Z,726.0000
2022-11-29T04:59:03.774Z,733.0000
2022-11-29T05:00:06.113Z,733.0000
2022-11-29T05:01:06.331Z,729.0000
2022-11-29T05:02:08.667Z,733.0000
2022-11-29T05:03:11.001Z,736.0000
2022-11-29T05:04:13.339Z,738.0000
2022-11-29T05:05:15.634Z,731.0000
2022-11-29T05:06:15.849Z,736.0000
2022-11-29T05:07:18.186Z,739.0000
2022-11-29T05:08:20.499Z,750.0000
2022-11-29T05:09:20.669Z,750.0000
2022-11-29T05:10:23.025Z,755.0000
2022-11-29T05:11:26.679Z,758.0000
2022-11-29T05:12:25.591Z,761.0000
2022-11-29T05:13:27.967Z,763.0000
2022-11-29T05:14:30.330Z,770.0000
2022-11-29T05:15:32.714Z,773.0000
2022-11-29T05:16:32.980Z,775.0000
2022-11-29T05:17:35.316Z,781.0000
2022-11-29T05:18:37.676Z,778.0000
2022-11-29T05:19:40.030Z,784.0000
2022-11-29T05:20:40.261Z,788.0000
2022-11-29T05:21:42.601Z,796.0000
2022-11-29T05:22:44.912Z,796.0000
2022-11-29T05:23:47.249Z,803.0000
2022-11-29T05:24:49.588Z,804.0000
2022-11-29T05:25:49.832Z,811.0000
2022-11-29T05:26:52.321Z,814.0000
2022-11-29T05:27:54.579Z,814.0000
2022-11-29T05:29:35.711Z,812.0000
2022-11-29T05:30:37.962Z,812.0000
2022-11-29T05:31:40.277Z,811.0000
2022-11-29T05:32:40.460Z,819.0000
2022-11-29T05:33:42.763Z,817.0000
2022-11-29T05:34:45.089Z,822.0000
2022-11-29T05:35:47.443Z,823.0000
2022-11-29T05:36:49.742Z,826.0000
2022-11-29T05:37:52.113Z,828.0000
2022-11-29T05:38:52.313Z,735.0000
2022-11-29T05:39:54.642Z,742.0000
2022-11-29T05:40:56.995Z,787.0000
2022-11-29T05:41:59.364Z,796.0000
2022-11-29T05:43:01.751Z,786.0000
2022-11-29T05:44:01.925Z,782.0000
2022-11-29T05:45:04.273Z,787.0000
2022-11-29T05:46:06.678Z,787.0000
2022-11-29T05:47:08.961Z,790.0000
2022-11-29T05:48:11.399Z,786.0000
2022-11-29T05:49:11.417Z,789.0000
2022-11-29T05:50:13.785Z,794.0000
2022-11-29T05:51:16.157Z,791.0000
2022-11-29T05:52:18.537Z,787.0000
2022-11-29T05:53:21.051Z,789.0000
2022-11-29T05:54:21.173Z,792.0000
2022-11-29T05:55:23.521Z,789.0000
2022-11-29T05:56:25.889Z,788.0000
2022-11-29T05:57:28.212Z,793.0000
2022-11-29T05:58:30.564Z,788.0000
2022-11-29T05:59:30.801Z,790.0000
2022-11-29T06:00:33.198Z,797.0000
2022-11-29T06:01:35.642Z,794.0000
2022-11-29T06:02:37.986Z,794.0000
2022-11-29T06:03:38.222Z,790.0000
2022-11-29T06:04:40.597Z,792.0000
2022-11-29T06:05:43.006Z,789.0000
2022-11-29T06:06:43.256Z,792.0000
2022-11-29T06:07:45.667Z,787.0000
2022-11-29T06:08:47.992Z,785.0000
2022-11-29T06:09:50.309Z,784.0000
2022-11-29T06:10:52.647Z,788.0000
2022-11-29T06:11:52.808Z,791.0000
2022-11-29T06:12:55.183Z,790.0000
2022-11-29T06:13:57.538Z,791.0000
2022-11-29T06:14:59.883Z,792.0000
2022-11-29T06:16:02.290Z,793.0000
2022-11-29T06:17:02.369Z,792.0000
2022-11-29T06:18:04.691Z,791.0000
2022-11-29T06:19:07.143Z,792.0000
2022-11-29T06:20:09.342Z,790.0000
2022-11-29T06:21:11.680Z,792.0000
2022-11-29T06:22:11.856Z,790.0000
2022-11-29T06:23:14.201Z,788.0000
2022-11-29T06:24:19.429Z,790.0000
2022-11-29T06:25:18.879Z,789.0000
2022-11-29T06:26:21.186Z,788.0000
2022-11-29T06:27:23.527Z,793.0000
2022-11-29T06:28:23.716Z,793.0000
2022-11-29T06:29:26.164Z,796.0000
2022-11-29T06:30:28.370Z,798.0000
2022-11-29T06:31:30.713Z,797.0000
2022-11-29T06:32:32.938Z,797.0000
2022-11-29T06:33:35.267Z,801.0000
2022-11-29T06:34:35.512Z,800.0000
2022-11-29T06:35:37.816Z,800.0000
2022-11-29T06:36:40.155Z,801.0000
2022-11-29T06:37:42.513Z,799.0000
2022-11-29T06:38:44.819Z,793.0000
2022-11-29T06:39:45.014Z,795.0000
2022-11-29T06:40:47.259Z,796.0000
2022-11-29T06:41:49.528Z,797.0000
2022-11-29T06:42:51.804Z,796.0000
2022-11-29T06:43:54.135Z,796.0000
2022-11-29T06:44:56.451Z,796.0000
2022-11-29T06:45:56.610Z,795.0000
2022-11-29T06:46:58.982Z,795.0000
2022-11-29T06:48:01.267Z,797.0000
2022-11-29T06:49:03.607Z,795.0000
2022-11-29T06:50:06.081Z,797.0000
2022-11-29T06:51:08.242Z,803.0000
2022-11-29T06:52:08.405Z,803.0000
2022-11-29T06:53:10.724Z,803.0000
2022-11-29T06:54:13.008Z,802.0000
2022-11-29T06:55:15.430Z,803.0000
2022-11-29T06:56:17.603Z,802.0000
2022-11-29T06:57:19.852Z,804.0000
2022-11-29T06:58:20.056Z,802.0000
2022-11-29T06:59:22.385Z,798.0000
2022-11-29T07:00:24.757Z,798.0000
2022-11-29T07:01:27.036Z,801.0000
2022-11-29T07:02:29.433Z,798.0000
2022-11-29T07:03:31.753Z,797.0000
2022-11-29T07:04:32.002Z,796.0000
2022-11-29T07:05:34.397Z,796.0000
2022-11-29T07:06:36.733Z,797.0000
2022-11-29T07:07:39.182Z,796.0000
2022-11-29T07:08:39.362Z,795.0000
2022-11-29T07:09:41.747Z,796.0000
2022-11-29T07:10:44.173Z,795.0000
2022-11-29T07:11:46.515Z,795.0000
2022-11-29T07:12:46.705Z,797.0000
2022-11-29T07:13:49.092Z,789.0000
2022-11-29T07:14:51.425Z,795.0000
2022-11-29T07:15:53.867Z,794.0000
2022-11-29T07:16:57.590Z,793.0000
2022-11-29T07:17:58.541Z,793.0000
2022-11-29T07:18:59.796Z,791.0000
2022-11-29T07:20:02.162Z,788.0000
2022-11-29T07:21:04.626Z,785.0000
2022-11-29T07:22:06.834Z,790.0000
2022-11-29T07:23:09.228Z,791.0000
2022-11-29T07:24:09.412Z,789.0000
2022-11-29T07:25:11.794Z,789.0000
2022-11-29T07:26:14.170Z,785.0000
2022-11-29T07:27:14.360Z,783.0000
2022-11-29T07:28:16.722Z,781.0000
2022-11-29T07:29:19.087Z,785.0000
2022-11-29T07:30:19.287Z,786.0000
2022-11-29T07:31:21.688Z,784.0000
2022-11-29T07:32:23.975Z,782.0000
2022-11-29T07:33:26.303Z,779.0000
2022-11-29T07:34:28.629Z,780.0000
2022-11-29T07:35:31.002Z,779.0000
2022-11-29T07:36:31.224Z,780.0000
2022-11-29T07:37:33.579Z,780.0000
2022-11-29T07:38:36.042Z,781.0000
2022-11-29T07:39:36.218Z,778.0000
2022-11-29T07:40:38.526Z,781.0000
2022-11-29T07:41:40.945Z,778.0000
2022-11-29T07:42:41.138Z,774.0000
2022-11-29T07:43:43.475Z,773.0000
2022-11-29T07:44:46.029Z,774.0000
2022-11-29T07:45:48.192Z,776.0000
2022-11-29T07:46:50.679Z,773.0000
2022-11-29T07:47:52.978Z,774.0000
2022-11-29T07:48:53.111Z,775.0000
2022-11-29T07:49:55.475Z,775.0000
2022-11-29T07:50:57.777Z,772.0000
2022-11-29T07:51:58.033Z,774.0000
2022-11-29T07:53:00.362Z,771.0000
2022-11-29T07:54:02.774Z,766.0000
2022-11-29T07:55:03.011Z,768.0000
2022-11-29T07:56:05.419Z,766.0000
2022-11-29T07:57:07.801Z,763.0000
2022-11-29T07:58:07.977Z,761.0000
2022-11-29T07:59:10.280Z,760.0000
2022-11-29T08:00:12.700Z,760.0000
2022-11-29T08:01:12.977Z,754.0000
2022-11-29T08:02:15.408Z,755.0000
2022-11-29T08:03:17.698Z,757.0000
2022-11-29T08:04:17.839Z,754.0000
2022-11-29T08:05:20.198Z,753.0000
2022-11-29T08:06:22.583Z,753.0000
2022-11-29T08:07:22.889Z,754.0000
2022-11-29T08:08:25.174Z,755.0000
2022-11-29T08:09:27.529Z,754.0000
2022-11-29T08:10:27.747Z,753.0000
2022-11-29T08:12:06.972Z,735.0000
2022-11-29T08:13:09.048Z,732.0000
2022-11-29T08:14:11.372Z,734.0000
2022-11-29T08:15:11.533Z,736.0000
2022-11-29T08:16:13.834Z,736.0000
2022-11-29T08:17:16.120Z,735.0000
2022-11-29T08:18:18.541Z,738.0000
2022-11-29T08:19:20.687Z,740.0000
2022-11-29T08:20:23.018Z,739.0000
2022-11-29T08:21:23.214Z,740.0000
2022-11-29T08:22:25.530Z,742.0000
2022-11-29T08:23:27.943Z,739.0000
2022-11-29T08:24:30.132Z,735.0000
2022-11-29T08:25:32.490Z,734.0000
2022-11-29T08:26:34.822Z,736.0000
2022-11-29T08:27:34.977Z,734.0000
2022-11-29T08:28:37.436Z,734.0000
2022-11-29T08:29:39.682Z,730.0000
2022-11-29T08:30:41.970Z,728.0000
2022-11-29T08:31:44.466Z,728.0000
2022-11-29T08:32:49.920Z,727.0000
2022-11-29T08:33:46.946Z,726.0000
2022-11-29T08:34:49.108Z,729.0000
2022-11-29T08:35:51.404Z,725.0000
2022-11-29T08:36:53.699Z,726.0000
2022-11-29T08:37:55.999Z,727.0000
2022-11-29T08:39:05.939Z,729.0000
2022-11-29T08:39:58.531Z,731.0000
2022-11-29T08:41:00.845Z,726.0000
2022-11-29T08:42:03.229Z,724.0000
2022-11-29T08:43:05.424Z,719.0000
2022-11-29T08:44:07.786Z,719.0000
2022-11-29T08:45:10.124Z,721.0000
2022-11-29T08:46:15.128Z,720.0000
2022-11-29T08:47:12.606Z,721.0000
2022-11-29T08:48:14.998Z,719.0000
2022-11-29T08:49:15.157Z,719.0000
2022-11-29T08:50:17.461Z,719.0000
2022-11-29T08:51:19.886Z,717.0000
2022-11-29T08:52:22.103Z,717.0000
2022-11-29T08:53:22.286Z,715.0000
2022-11-29T08:54:24.739Z,715.0000
2022-11-29T08:55:26.971Z,715.0000
2022-11-29T08:57:16.749Z,714.0000
2022-11-29T08:57:39.885Z,714.0000
2022-11-29T08:58:31.839Z,714.0000
2022-11-29T08:59:35.052Z,712.0000
2022-11-29T09:00:36.501Z,709.0000
2022-11-29T09:01:38.845Z,711.0000
2022-11-29T09:02:41.235Z,707.0000
2022-11-29T09:03:43.529Z,707.0000
2022-11-29T09:04:43.920Z,700.0000
2022-11-29T09:05:46.067Z,697.0000
2022-11-29T09:06:48.420Z,695.0000
2022-11-29T09:07:50.802Z,695.0000
2022-11-29T09:08:53.046Z,692.0000
2022-11-29T09:09:55.441Z,697.0000
2022-11-29T09:10:55.530Z,699.0000
2022-11-29T09:11:57.843Z,693.0000
2022-11-29T09:13:00.188Z,693.0000
2022-11-29T09:14:02.522Z,691.0000
2022-11-29T09:15:02.745Z,690.0000
2022-11-29T09:16:05.112Z,694.0000
2022-11-29T09:17:07.403Z,690.0000
2022-11-29T09:18:09.706Z,692.0000
2022-11-29T09:19:12.032Z,692.0000
2022-11-29T09:20:14.486Z,689.0000
2022-11-29T09:21:14.562Z,689.0000
2022-11-29T09:22:16.868Z,689.0000
2022-11-29T09:23:19.175Z,687.0000
2022-11-29T09:24:21.522Z,682.0000
2022-11-29T09:25:23.899Z,683.0000
2022-11-29T09:26:24.017Z,686.0000
2022-11-29T09:27:26.336Z,686.0000
2022-11-29T09:28:28.673Z,685.0000
2022-11-29T09:29:31.006Z,683.0000
2022-11-29T09:30:33.360Z,682.0000
2022-11-29T09:31:33.615Z,677.0000
2022-11-29T09:32:35.827Z,672.0000
2022-11-29T09:33:38.129Z,673.0000
2022-11-29T09:34:40.415Z,674.0000
2022-11-29T09:35:42.776Z,676.0000
2022-11-29T09:36:45.023Z,675.0000
2022-11-29T09:37:45.153Z,677.0000
2022-11-29T09:38:47.417Z,677.0000
2022-11-29T09:39:49.749Z,672.0000
2022-11-29T09:40:52.236Z,670.0000
2022-11-29T09:41:54.438Z,671.0000
2022-11-29T09:42:56.791Z,668.0000
2022-11-29T09:43:56.979Z,664.0000
2022-11-29T09:44:59.367Z,661.0000
2022-11-29T09:46:01.839Z,663.0000
2022-11-29T09:47:04.099Z,663.0000
2022-11-29T09:48:06.462Z,664.0000
2022-11-29T09:49:06.634Z,665.0000
2022-11-29T09:50:08.987Z,670.0000
2022-11-29T09:51:11.450Z,667.0000
2022-11-29T09:52:13.697Z,670.0000
2022-11-29T09:53:16.008Z,672.0000
2022-11-29T09:54:16.220Z,673.0000
2022-11-29T09:55:18.573Z,671.0000
2022-11-29T09:56:21.101Z,671.0000
2022-11-29T09:57:23.303Z,666.0000
2022-11-29T09:58:25.708Z,670.0000
2022-11-29T09:59:25.880Z,668.0000
2022-11-29T10:00:28.235Z,671.0000
2022-11-29T10:01:30.683Z,673.0000
2022-11-29T10:02:33.069Z,673.0000
2022-11-29T10:03:33.209Z,668.0000
2022-11-29T10:04:35.568Z,666.0000
2022-11-29T10:05:37.909Z,666.0000
2022-11-29T10:06:40.310Z,665.0000
2022-11-29T10:08:50.327Z,653.0000
2022-11-29T10:10:51.922Z,652.0000
2022-11-29T10:11:54.692Z,656.0000
2022-11-29T10:12:56.335Z,655.0000
2022-11-29T10:13:56.512Z,652.0000
2022-11-29T10:14:58.793Z,652.0000
2022-11-29T10:16:01.099Z,653.0000
2022-11-29T10:17:03.548Z,651.0000
2022-11-29T10:18:05.779Z,652.0000
2022-11-29T10:19:05.891Z,653.0000
2022-11-29T10:20:08.256Z,655.0000
2022-11-29T10:21:10.522Z,657.0000
2022-11-29T10:22:12.967Z,659.0000
2022-11-29T10:23:15.286Z,656.0000
2022-11-29T10:24:17.494Z,653.0000
2022-11-29T10:25:17.688Z,651.0000
2022-11-29T10:26:19.969Z,650.0000
2022-11-29T10:27:22.306Z,651.0000
2022-11-29T10:28:24.641Z,655.0000
2022-11-29T10:29:26.969Z,651.0000
2022-11-29T10:30:29.439Z,649.0000
2022-11-29T10:31:29.570Z,652.0000
2022-11-29T10:32:31.942Z,649.0000
2022-11-29T10:33:34.282Z,647.0000
2022-11-29T10:34:36.580Z,648.0000
2022-11-29T10:35:38.860Z,645.0000
2022-11-29T10:36:39.057Z,641.0000
2022-11-29T10:37:41.405Z,641.0000
2022-11-29T10:38:43.699Z,641.0000
2022-11-29T10:39:46.005Z,642.0000
2022-11-29T10:40:48.314Z,642.0000
2022-11-29T10:41:48.456Z,641.0000
2022-11-29T10:42:50.856Z,641.0000
2022-11-29T10:43:53.151Z,639.0000
2022-11-29T10:44:55.477Z,639.0000
2022-11-29T10:45:57.870Z,640.0000
2022-11-29T10:47:00.123Z,641.0000
2022-11-29T10:48:00.321Z,641.0000
2022-11-29T10:49:02.656Z,640.0000
2022-11-29T10:50:04.951Z,641.0000
2022-11-29T10:51:07.298Z,642.0000
2022-11-29T10:52:09.559Z,641.0000
2022-11-29T10:53:09.897Z,642.0000
2022-11-29T10:54:12.079Z,641.0000
2022-11-29T10:55:14.407Z,642.0000
2022-11-29T10:56:16.716Z,637.0000
2022-11-29T10:57:19.041Z,633.0000
2022-11-29T10:58:27.497Z,628.0000
2022-11-29T10:59:21.526Z,626.0000
2022-11-29T11:00:23.809Z,625.0000
2022-11-29T11:01:26.244Z,624.0000
2022-11-29T11:02:28.403Z,618.0000
2022-11-29T11:03:30.692Z,622.0000
2022-11-29T11:04:32.996Z,623.0000
2022-11-29T11:05:35.279Z,623.0000
2022-11-29T11:06:35.389Z,630.0000
2022-11-29T11:07:37.770Z,633.0000
2022-11-29T11:08:40.091Z,633.0000
2022-11-29T11:09:42.274Z,631.0000
2022-11-29T11:10:48.182Z,628.0000
2022-11-29T11:11:46.994Z,623.0000
2022-11-29T11:13:30.223Z,624.0000
2022-11-29T11:14:32.537Z,622.0000
2022-11-29T11:15:33.530Z,618.0000
2022-11-29T11:16:37.599Z,618.0000
2022-11-29T11:17:37.013Z,618.0000
2022-11-29T11:18:39.248Z,614.0000
2022-11-29T11:19:41.580Z,615.0000
2022-11-29T11:20:43.747Z,614.0000
2022-11-29T11:21:43.868Z,615.0000
2022-11-29T11:22:46.120Z,616.0000
2022-11-29T11:23:48.366Z,612.0000
2022-11-29T11:24:50.708Z,613.0000
2022-11-29T11:25:52.965Z,613.0000
2022-11-29T11:26:55.282Z,610.0000
2022-11-29T11:27:57.498Z,610.0000
2022-11-29T11:28:59.786Z,608.0000
2022-11-29T11:29:59.952Z,609.0000
2022-11-29T11:31:02.300Z,611.0000
2022-11-29T11:32:04.419Z,610.0000
2022-11-29T11:33:06.712Z,612.0000
2022-11-29T11:34:08.977Z,608.0000
2022-11-29T11:35:15.590Z,607.0000
2022-11-29T11:36:13.520Z,604.0000
2022-11-29T11:37:15.808Z,605.0000
2022-11-29T11:38:15.924Z,608.0000
2022-11-29T11:39:18.194Z,609.0000
2022-11-29T11:40:20.662Z,611.0000
2022-11-29T11:41:22.825Z,610.0000
2022-11-29T11:42:25.120Z,607.0000
2022-11-29T11:44:58.090Z,594.0000
2022-11-29T11:45:47.426Z,594.0000
2022-11-29T11:46:49.584Z,595.0000
2022-11-29T11:47:51.748Z,598.0000
2022-11-29T11:48:54.058Z,594.0000
2022-11-29T11:49:56.354Z,598.0000
2022-11-29T11:50:58.695Z,602.0000
2022-11-29T11:52:00.971Z,604.0000
2022-11-29T11:53:01.115Z,601.0000
2022-11-29T11:54:03.452Z,600.0000
2022-11-29T11:55:05.777Z,598.0000
2022-11-29T11:56:08.246Z,600.0000
2022-11-29T11:57:10.448Z,603.0000
2022-11-29T11:58:10.975Z,599.0000
2022-11-29T11:59:12.987Z,603.0000
2022-11-29T12:00:15.320Z,606.0000
2022-11-29T12:01:17.704Z,608.0000
2022-11-29T12:02:20.041Z,614.0000
2022-11-29T12:03:20.239Z,611.0000
2022-11-29T12:04:22.498Z,612.0000
2022-11-29T12:05:24.800Z,612.0000
2022-11-29T12:06:27.192Z,609.0000
2022-11-29T12:07:52.023Z,607.0000
2022-11-29T12:08:31.696Z,608.0000
2022-11-29T12:09:33.903Z,610.0000
2022-11-29T12:10:36.158Z,603.0000
2022-11-29T12:11:36.320Z,606.0000
2022-11-29T12:12:38.588Z,606.0000
2022-11-29T12:13:40.864Z,607.0000